sensor_id;sensor_type;location;lat;lon;timestamp;temperature;humidity
4602;DHT22;2313;48.552;9.370;2023-08-01T00:01:28;19.50;99.90
4602;DHT22;2313;48.552;9.370;2023-08-01T00:03:54;19.60;99.90
4602;DHT22;2313;48.552;9.370;2023-08-01T00:06:20;19.60;99.90
4602;DHT22;2313;48.552;9.370;2023-08-01T00:08:47;19.70;99.90
4602;DHT22;2313;48.552;9.370;2023-08-01T00:11:13;19.70;99.90
4602;DHT22;2313;48.552;9.370;2023-08-01T00:13:40;19.70;99.90
4602;DHT22;2313;48.552;9.370;2023-08-01T00:16:06;19.70;99.90
4602;DHT22;2313;48.552;9.370;2023-08-01T00:18:31;19.70;99.90
4602;DHT22;2313;48.552;9.370;2023-08-01T00:20:57;19.70;99.90
4602;DHT22;2313;48.552;9.370;2023-08-01T00:23:24;19.70;99.90
4602;DHT22;2313;48.552;9.370;2023-08-01T00:25:49;19.70;99.90
4602;DHT22;2313;48.552;9.370;2023-08-01T00:28:21;19.70;99.90
4602;DHT22;2313;48.552;9.370;2023-08-01T00:30:47;19.60;99.90
4602;DHT22;2313;48.552;9.370;2023-08-01T00:33:13;19.60;99.90
4602;DHT22;2313;48.552;9.370;2023-08-01T00:35:40;19.50;99.90
4602;DHT22;2313;48.552;9.370;2023-08-01T00:38:05;19.60;99.90
4602;DHT22;2313;48.552;9.370;2023-08-01T00:40:32;19.60;99.90
4602;DHT22;2313;48.552;9.370;2023-08-01T00:42:57;19.70;99.90
4602;DHT22;2313;48.552;9.370;2023-08-01T00:45:24;19.80;99.90
4602;DHT22;2313;48.552;9.370;2023-08-01T00:47:51;19.80;99.90
4602;DHT22;2313;48.552;9.370;2023-08-01T00:50:18;19.80;99.90
4602;DHT22;2313;48.552;9.370;2023-08-01T00:52:46;19.80;99.90
4602;DHT22;2313;48.552;9.370;2023-08-01T00:55:12;19.90;99.90
4602;DHT22;2313;48.552;9.370;2023-08-01T00:57:38;19.90;99.90
4602;DHT22;2313;48.552;9.370;2023-08-01T01:00:04;20.00;99.90
4602;DHT22;2313;48.552;9.370;2023-08-01T01:02:30;20.00;99.90
4602;DHT22;2313;48.552;9.370;2023-08-01T01:04:56;20.20;99.90
4602;DHT22;2313;48.552;9.370;2023-08-01T01:07:22;20.20;99.90
4602;DHT22;2313;48.552;9.370;2023-08-01T01:09:50;20.40;99.90
4602;DHT22;2313;48.552;9.370;2023-08-01T01:12:16;20.30;99.90
4602;DHT22;2313;48.552;9.370;2023-08-01T01:14:41;20.40;99.90
4602;DHT22;2313;48.552;9.370;2023-08-01T01:17:07;20.40;99.90
4602;DHT22;2313;48.552;9.370;2023-08-01T01:19:32;20.40;99.90
4602;DHT22;2313;48.552;9.370;2023-08-01T01:21:58;20.40;99.90
4602;DHT22;2313;48.552;9.370;2023-08-01T01:24:25;20.50;99.90
4602;DHT22;2313;48.552;9.370;2023-08-01T01:26:51;20.50;99.90
4602;DHT22;2313;48.552;9.370;2023-08-01T01:29:18;20.40;99.90
4602;DHT22;2313;48.552;9.370;2023-08-01T01:31:45;20.50;99.90
4602;DHT22;2313;48.552;9.370;2023-08-01T01:34:11;20.60;99.90
4602;DHT22;2313;48.552;9.370;2023-08-01T01:36:37;20.60;99.90
4602;DHT22;2313;48.552;9.370;2023-08-01T01:39:03;20.60;99.90
4602;DHT22;2313;48.552;9.370;2023-08-01T01:41:28;20.60;99.90
4602;DHT22;2313;48.552;9.370;2023-08-01T01:43:54;20.60;99.90
4602;DHT22;2313;48.552;9.370;2023-08-01T01:46:19;20.50;99.90
4602;DHT22;2313;48.552;9.370;2023-08-01T01:48:45;20.40;99.90
4602;DHT22;2313;48.552;9.370;2023-08-01T01:51:10;20.30;99.90
4602;DHT22;2313;48.552;9.370;2023-08-01T01:53:36;20.40;99.90
4602;DHT22;2313;48.552;9.370;2023-08-01T01:56:02;20.40;99.90
4602;DHT22;2313;48.552;9.370;2023-08-01T01:58:27;20.40;99.90
4602;DHT22;2313;48.552;9.370;2023-08-01T02:00:53;20.40;99.90
4602;DHT22;2313;48.552;9.370;2023-08-01T02:03:18;20.30;99.90
4602;DHT22;2313;48.552;9.370;2023-08-01T02:05:45;20.20;99.90
4602;DHT22;2313;48.552;9.370;2023-08-01T02:08:10;20.20;99.90
4602;DHT22;2313;48.552;9.370;2023-08-01T02:10:36;20.10;99.90
4602;DHT22;2313;48.552;9.370;2023-08-01T02:13:01;20.10;99.90
4602;DHT22;2313;48.552;9.370;2023-08-01T02:15:27;20.00;99.90
4602;DHT22;2313;48.552;9.370;2023-08-01T02:17:52;20.10;99.90
4602;DHT22;2313;48.552;9.370;2023-08-01T02:20:18;20.10;99.90
4602;DHT22;2313;48.552;9.370;2023-08-01T02:22:44;20.20;99.90
4602;DHT22;2313;48.552;9.370;2023-08-01T02:25:09;20.20;99.90
4602;DHT22;2313;48.552;9.370;2023-08-01T02:27:35;20.20;99.90
4602;DHT22;2313;48.552;9.370;2023-08-01T02:30:00;20.30;99.90
4602;DHT22;2313;48.552;9.370;2023-08-01T02:32:26;20.30;99.90
4602;DHT22;2313;48.552;9.370;2023-08-01T02:34:51;20.40;99.90
4602;DHT22;2313;48.552;9.370;2023-08-01T02:37:17;20.40;99.90
4602;DHT22;2313;48.552;9.370;2023-08-01T02:39:43;20.40;99.90
4602;DHT22;2313;48.552;9.370;2023-08-01T02:42:09;20.40;99.90
4602;DHT22;2313;48.552;9.370;2023-08-01T02:44:34;20.40;99.90
4602;DHT22;2313;48.552;9.370;2023-08-01T02:47:00;20.40;99.90
4602;DHT22;2313;48.552;9.370;2023-08-01T02:49:25;20.40;99.90
4602;DHT22;2313;48.552;9.370;2023-08-01T02:51:51;20.40;99.90
4602;DHT22;2313;48.552;9.370;2023-08-01T02:54:17;20.40;99.90
4602;DHT22;2313;48.552;9.370;2023-08-01T02:56:42;20.40;99.90
4602;DHT22;2313;48.552;9.370;2023-08-01T02:59:08;20.40;99.90
4602;DHT22;2313;48.552;9.370;2023-08-01T03:01:35;20.40;99.90
4602;DHT22;2313;48.552;9.370;2023-08-01T03:04:05;20.40;99.90
4602;DHT22;2313;48.552;9.370;2023-08-01T03:06:31;20.40;99.90
4602;DHT22;2313;48.552;9.370;2023-08-01T03:08:57;20.40;99.90
4602;DHT22;2313;48.552;9.370;2023-08-01T03:11:23;20.40;99.90
4602;DHT22;2313;48.552;9.370;2023-08-01T03:13:49;20.40;99.90
4602;DHT22;2313;48.552;9.370;2023-08-01T03:16:14;20.40;99.90
4602;DHT22;2313;48.552;9.370;2023-08-01T03:18:40;20.30;99.90
4602;DHT22;2313;48.552;9.370;2023-08-01T03:21:05;20.30;99.90
4602;DHT22;2313;48.552;9.370;2023-08-01T03:23:31;20.30;99.90
4602;DHT22;2313;48.552;9.370;2023-08-01T03:25:57;20.30;99.90
4602;DHT22;2313;48.552;9.370;2023-08-01T03:28:25;20.30;99.90
4602;DHT22;2313;48.552;9.370;2023-08-01T03:30:51;20.30;99.90
4602;DHT22;2313;48.552;9.370;2023-08-01T03:33:19;20.30;99.90
4602;DHT22;2313;48.552;9.370;2023-08-01T03:35:44;20.30;99.90
4602;DHT22;2313;48.552;9.370;2023-08-01T03:38:10;20.30;99.90
4602;DHT22;2313;48.552;9.370;2023-08-01T03:40:36;20.30;99.90
4602;DHT22;2313;48.552;9.370;2023-08-01T03:43:01;20.30;99.90
4602;DHT22;2313;48.552;9.370;2023-08-01T03:45:27;20.30;99.90
4602;DHT22;2313;48.552;9.370;2023-08-01T03:47:52;20.30;99.90
4602;DHT22;2313;48.552;9.370;2023-08-01T03:50:18;20.30;99.90
4602;DHT22;2313;48.552;9.370;2023-08-01T03:52:44;20.30;99.90
4602;DHT22;2313;48.552;9.370;2023-08-01T03:55:10;20.30;99.90
4602;DHT22;2313;48.552;9.370;2023-08-01T03:57:37;20.20;99.90
4602;DHT22;2313;48.552;9.370;2023-08-01T04:00:07;20.20;99.90
4602;DHT22;2313;48.552;9.370;2023-08-01T04:02:39;20.20;99.90
4602;DHT22;2313;48.552;9.370;2023-08-01T04:05:05;20.20;99.90
4602;DHT22;2313;48.552;9.370;2023-08-01T04:07:31;20.20;99.90
4602;DHT22;2313;48.552;9.370;2023-08-01T04:09:57;20.20;99.90
4602;DHT22;2313;48.552;9.370;2023-08-01T04:12:22;20.20;99.90
4602;DHT22;2313;48.552;9.370;2023-08-01T04:14:48;20.10;99.90
4602;DHT22;2313;48.552;9.370;2023-08-01T04:17:13;20.10;99.90
4602;DHT22;2313;48.552;9.370;2023-08-01T04:19:39;20.10;99.90
4602;DHT22;2313;48.552;9.370;2023-08-01T04:22:05;20.10;99.90
4602;DHT22;2313;48.552;9.370;2023-08-01T04:24:30;20.10;99.90
4602;DHT22;2313;48.552;9.370;2023-08-01T04:26:56;20.10;99.90
4602;DHT22;2313;48.552;9.370;2023-08-01T04:29:22;20.10;99.90
4602;DHT22;2313;48.552;9.370;2023-08-01T04:31:47;20.10;99.90
4602;DHT22;2313;48.552;9.370;2023-08-01T04:34:13;20.10;99.90
4602;DHT22;2313;48.552;9.370;2023-08-01T04:36:39;20.10;99.90
4602;DHT22;2313;48.552;9.370;2023-08-01T04:39:04;20.10;99.90
4602;DHT22;2313;48.552;9.370;2023-08-01T04:41:31;20.10;99.90
4602;DHT22;2313;48.552;9.370;2023-08-01T04:43:56;20.00;99.90
4602;DHT22;2313;48.552;9.370;2023-08-01T04:46:22;19.90;99.90
4602;DHT22;2313;48.552;9.370;2023-08-01T04:48:47;19.90;99.90
4602;DHT22;2313;48.552;9.370;2023-08-01T04:51:13;20.00;99.90
4602;DHT22;2313;48.552;9.370;2023-08-01T04:53:38;20.00;99.90
4602;DHT22;2313;48.552;9.370;2023-08-01T04:56:04;20.00;99.90
4602;DHT22;2313;48.552;9.370;2023-08-01T04:58:30;19.90;99.90
4602;DHT22;2313;48.552;9.370;2023-08-01T05:00:56;19.90;99.90
4602;DHT22;2313;48.552;9.370;2023-08-01T05:03:21;19.90;99.90
4602;DHT22;2313;48.552;9.370;2023-08-01T05:05:47;19.90;99.90
4602;DHT22;2313;48.552;9.370;2023-08-01T05:08:13;19.90;99.90
4602;DHT22;2313;48.552;9.370;2023-08-01T05:10:39;20.00;99.90
4602;DHT22;2313;48.552;9.370;2023-08-01T05:13:05;19.90;99.90
4602;DHT22;2313;48.552;9.370;2023-08-01T05:15:30;20.00;99.90
4602;DHT22;2313;48.552;9.370;2023-08-01T05:17:56;19.90;99.90
4602;DHT22;2313;48.552;9.370;2023-08-01T05:20:22;20.00;99.90
4602;DHT22;2313;48.552;9.370;2023-08-01T05:22:47;20.00;99.90
4602;DHT22;2313;48.552;9.370;2023-08-01T05:25:13;20.00;99.90
4602;DHT22;2313;48.552;9.370;2023-08-01T05:27:38;20.10;99.90
4602;DHT22;2313;48.552;9.370;2023-08-01T05:30:04;20.10;99.90
4602;DHT22;2313;48.552;9.370;2023-08-01T05:32:30;20.10;99.90
4602;DHT22;2313;48.552;9.370;2023-08-01T05:34:56;20.10;99.90
4602;DHT22;2313;48.552;9.370;2023-08-01T05:37:21;20.20;99.90
4602;DHT22;2313;48.552;9.370;2023-08-01T05:39:47;20.20;99.90
4602;DHT22;2313;48.552;9.370;2023-08-01T05:42:12;20.20;99.90
4602;DHT22;2313;48.552;9.370;2023-08-01T05:44:38;20.20;99.90
4602;DHT22;2313;48.552;9.370;2023-08-01T05:47:04;20.20;99.90
4602;DHT22;2313;48.552;9.370;2023-08-01T05:49:29;20.30;99.90
4602;DHT22;2313;48.552;9.370;2023-08-01T05:51:55;20.30;99.90
4602;DHT22;2313;48.552;9.370;2023-08-01T05:54:21;20.30;99.90
4602;DHT22;2313;48.552;9.370;2023-08-01T05:56:46;20.40;99.90
4602;DHT22;2313;48.552;9.370;2023-08-01T05:59:12;20.40;99.90
4602;DHT22;2313;48.552;9.370;2023-08-01T06:01:38;20.40;99.90
4602;DHT22;2313;48.552;9.370;2023-08-01T06:04:03;20.40;99.90
4602;DHT22;2313;48.552;9.370;2023-08-01T06:06:29;20.50;99.90
4602;DHT22;2313;48.552;9.370;2023-08-01T06:08:54;20.50;99.90
4602;DHT22;2313;48.552;9.370;2023-08-01T06:11:21;20.50;99.90
4602;DHT22;2313;48.552;9.370;2023-08-01T06:13:47;20.50;99.90
4602;DHT22;2313;48.552;9.370;2023-08-01T06:16:12;20.50;99.90
4602;DHT22;2313;48.552;9.370;2023-08-01T06:18:38;20.50;99.90
4602;DHT22;2313;48.552;9.370;2023-08-01T06:21:03;20.40;99.90
4602;DHT22;2313;48.552;9.370;2023-08-01T06:23:29;20.40;99.90
4602;DHT22;2313;48.552;9.370;2023-08-01T06:25:54;20.40;99.90
4602;DHT22;2313;48.552;9.370;2023-08-01T06:28:20;20.30;99.90
4602;DHT22;2313;48.552;9.370;2023-08-01T06:30:46;20.30;99.90
4602;DHT22;2313;48.552;9.370;2023-08-01T06:33:11;20.20;99.90
4602;DHT22;2313;48.552;9.370;2023-08-01T06:35:37;20.20;99.90
4602;DHT22;2313;48.552;9.370;2023-08-01T06:38:02;20.20;99.90
4602;DHT22;2313;48.552;9.370;2023-08-01T06:40:28;20.10;99.90
4602;DHT22;2313;48.552;9.370;2023-08-01T06:42:54;20.10;99.90
4602;DHT22;2313;48.552;9.370;2023-08-01T06:45:19;20.10;99.90
4602;DHT22;2313;48.552;9.370;2023-08-01T06:47:45;20.10;99.90
4602;DHT22;2313;48.552;9.370;2023-08-01T06:50:10;20.10;99.90
4602;DHT22;2313;48.552;9.370;2023-08-01T06:52:36;20.10;99.90
4602;DHT22;2313;48.552;9.370;2023-08-01T06:55:02;20.10;99.90
4602;DHT22;2313;48.552;9.370;2023-08-01T06:57:27;20.00;99.90
4602;DHT22;2313;48.552;9.370;2023-08-01T06:59:53;20.00;99.90
4602;DHT22;2313;48.552;9.370;2023-08-01T07:02:18;20.00;99.90
4602;DHT22;2313;48.552;9.370;2023-08-01T07:04:44;20.10;99.90
4602;DHT22;2313;48.552;9.370;2023-08-01T07:07:10;20.00;99.90
4602;DHT22;2313;48.552;9.370;2023-08-01T07:09:35;19.90;99.90
4602;DHT22;2313;48.552;9.370;2023-08-01T07:12:01;20.00;99.90
4602;DHT22;2313;48.552;9.370;2023-08-01T07:14:27;20.00;99.90
4602;DHT22;2313;48.552;9.370;2023-08-01T07:16:52;19.90;99.90
4602;DHT22;2313;48.552;9.370;2023-08-01T07:19:18;19.90;99.90
4602;DHT22;2313;48.552;9.370;2023-08-01T07:21:44;19.90;99.90
4602;DHT22;2313;48.552;9.370;2023-08-01T07:24:11;19.90;99.90
4602;DHT22;2313;48.552;9.370;2023-08-01T07:26:39;19.80;99.90
4602;DHT22;2313;48.552;9.370;2023-08-01T07:29:04;19.70;99.90
4602;DHT22;2313;48.552;9.370;2023-08-01T07:31:30;19.80;99.90
4602;DHT22;2313;48.552;9.370;2023-08-01T07:33:55;19.70;99.90
4602;DHT22;2313;48.552;9.370;2023-08-01T07:36:21;19.80;99.90
4602;DHT22;2313;48.552;9.370;2023-08-01T07:38:47;19.70;99.90
4602;DHT22;2313;48.552;9.370;2023-08-01T07:41:12;19.80;99.90
4602;DHT22;2313;48.552;9.370;2023-08-01T07:43:38;19.80;99.90
4602;DHT22;2313;48.552;9.370;2023-08-01T07:46:03;19.90;99.90
4602;DHT22;2313;48.552;9.370;2023-08-01T07:48:29;19.90;99.90
4602;DHT22;2313;48.552;9.370;2023-08-01T07:50:55;19.90;99.90
4602;DHT22;2313;48.552;9.370;2023-08-01T07:53:20;19.90;99.90
4602;DHT22;2313;48.552;9.370;2023-08-01T07:55:46;19.80;99.90
4602;DHT22;2313;48.552;9.370;2023-08-01T07:58:11;19.80;99.90
4602;DHT22;2313;48.552;9.370;2023-08-01T08:00:37;19.80;99.90
4602;DHT22;2313;48.552;9.370;2023-08-01T08:03:03;19.80;99.90
4602;DHT22;2313;48.552;9.370;2023-08-01T08:05:28;19.70;99.90
4602;DHT22;2313;48.552;9.370;2023-08-01T08:07:54;19.60;99.90
4602;DHT22;2313;48.552;9.370;2023-08-01T08:10:19;19.50;99.90
4602;DHT22;2313;48.552;9.370;2023-08-01T08:12:45;19.30;99.90
4602;DHT22;2313;48.552;9.370;2023-08-01T08:15:11;19.20;99.90
4602;DHT22;2313;48.552;9.370;2023-08-01T08:17:38;18.90;99.90
4602;DHT22;2313;48.552;9.370;2023-08-01T08:20:04;18.80;99.90
4602;DHT22;2313;48.552;9.370;2023-08-01T08:22:31;18.70;99.90
4602;DHT22;2313;48.552;9.370;2023-08-01T08:24:57;18.50;99.90
4602;DHT22;2313;48.552;9.370;2023-08-01T08:27:22;18.30;99.90
4602;DHT22;2313;48.552;9.370;2023-08-01T08:29:48;18.10;99.90
4602;DHT22;2313;48.552;9.370;2023-08-01T08:32:14;17.90;99.90
4602;DHT22;2313;48.552;9.370;2023-08-01T08:34:39;17.80;99.90
4602;DHT22;2313;48.552;9.370;2023-08-01T08:37:05;17.70;99.90
4602;DHT22;2313;48.552;9.370;2023-08-01T08:39:31;17.80;99.90
4602;DHT22;2313;48.552;9.370;2023-08-01T08:41:56;17.70;99.90
4602;DHT22;2313;48.552;9.370;2023-08-01T08:44:22;17.70;99.90
4602;DHT22;2313;48.552;9.370;2023-08-01T08:46:51;17.60;99.90
4602;DHT22;2313;48.552;9.370;2023-08-01T08:49:21;17.70;99.90
4602;DHT22;2313;48.552;9.370;2023-08-01T08:51:47;17.70;99.90
4602;DHT22;2313;48.552;9.370;2023-08-01T08:54:14;17.70;99.90
4602;DHT22;2313;48.552;9.370;2023-08-01T08:56:41;17.70;99.90
4602;DHT22;2313;48.552;9.370;2023-08-01T08:59:10;17.60;99.90
4602;DHT22;2313;48.552;9.370;2023-08-01T09:01:36;17.60;99.90
4602;DHT22;2313;48.552;9.370;2023-08-01T09:04:02;17.70;99.90
4602;DHT22;2313;48.552;9.370;2023-08-01T09:06:48;17.70;99.90
4602;DHT22;2313;48.552;9.370;2023-08-01T09:09:14;17.70;99.90
4602;DHT22;2313;48.552;9.370;2023-08-01T09:11:48;17.70;99.90
4602;DHT22;2313;48.552;9.370;2023-08-01T09:14:15;17.80;99.90
4602;DHT22;2313;48.552;9.370;2023-08-01T09:16:41;17.80;99.90
4602;DHT22;2313;48.552;9.370;2023-08-01T09:19:08;17.70;99.90
4602;DHT22;2313;48.552;9.370;2023-08-01T09:21:35;17.80;99.90
4602;DHT22;2313;48.552;9.370;2023-08-01T09:24:13;17.80;99.90
4602;DHT22;2313;48.552;9.370;2023-08-01T09:26:39;17.80;99.90
4602;DHT22;2313;48.552;9.370;2023-08-01T09:29:06;17.80;99.90
4602;DHT22;2313;48.552;9.370;2023-08-01T09:31:40;17.70;99.90
4602;DHT22;2313;48.552;9.370;2023-08-01T09:34:21;17.80;99.90
4602;DHT22;2313;48.552;9.370;2023-08-01T09:36:47;17.80;99.90
4602;DHT22;2313;48.552;9.370;2023-08-01T09:39:17;18.00;99.90
4602;DHT22;2313;48.552;9.370;2023-08-01T09:41:43;18.10;99.90
4602;DHT22;2313;48.552;9.370;2023-08-01T09:44:15;18.20;99.90
4602;DHT22;2313;48.552;9.370;2023-08-01T09:46:41;18.20;99.90
4602;DHT22;2313;48.552;9.370;2023-08-01T09:49:11;18.20;99.90
4602;DHT22;2313;48.552;9.370;2023-08-01T09:51:49;18.30;99.90
4602;DHT22;2313;48.552;9.370;2023-08-01T09:54:16;18.30;99.90
4602;DHT22;2313;48.552;9.370;2023-08-01T09:56:46;18.30;99.90
4602;DHT22;2313;48.552;9.370;2023-08-01T09:59:13;18.30;99.90
4602;DHT22;2313;48.552;9.370;2023-08-01T10:01:42;18.30;99.90
4602;DHT22;2313;48.552;9.370;2023-08-01T10:04:10;18.30;99.90
4602;DHT22;2313;48.552;9.370;2023-08-01T10:06:37;18.30;99.90
4602;DHT22;2313;48.552;9.370;2023-08-01T10:09:04;18.30;99.90
4602;DHT22;2313;48.552;9.370;2023-08-01T10:11:34;18.30;99.90
4602;DHT22;2313;48.552;9.370;2023-08-01T10:14:02;18.40;99.90
4602;DHT22;2313;48.552;9.370;2023-08-01T10:16:28;18.30;99.90
4602;DHT22;2313;48.552;9.370;2023-08-01T10:18:54;18.30;99.90
4602;DHT22;2313;48.552;9.370;2023-08-01T10:21:20;18.30;99.90
4602;DHT22;2313;48.552;9.370;2023-08-01T10:23:47;18.30;99.90
4602;DHT22;2313;48.552;9.370;2023-08-01T10:26:14;18.30;99.90
4602;DHT22;2313;48.552;9.370;2023-08-01T10:28:41;18.30;99.90
4602;DHT22;2313;48.552;9.370;2023-08-01T10:31:15;18.40;99.90
4602;DHT22;2313;48.552;9.370;2023-08-01T10:33:43;18.30;99.90
4602;DHT22;2313;48.552;9.370;2023-08-01T10:36:16;18.30;99.90
4602;DHT22;2313;48.552;9.370;2023-08-01T10:38:55;18.20;99.90
4602;DHT22;2313;48.552;9.370;2023-08-01T10:44:12;18.10;99.90
4602;DHT22;2313;48.552;9.370;2023-08-01T10:46:55;18.00;99.90
4602;DHT22;2313;48.552;9.370;2023-08-01T10:49:40;18.00;99.90
4602;DHT22;2313;48.552;9.370;2023-08-01T10:54:42;18.20;99.90
4602;DHT22;2313;48.552;9.370;2023-08-01T10:57:08;18.40;99.90
4602;DHT22;2313;48.552;9.370;2023-08-01T10:59:34;18.80;99.90
4602;DHT22;2313;48.552;9.370;2023-08-01T11:02:00;19.10;99.90
4602;DHT22;2313;48.552;9.370;2023-08-01T11:04:26;19.50;99.90
4602;DHT22;2313;48.552;9.370;2023-08-01T11:06:54;19.70;99.90
4602;DHT22;2313;48.552;9.370;2023-08-01T11:09:23;19.60;99.90
4602;DHT22;2313;48.552;9.370;2023-08-01T11:11:57;19.60;99.90
4602;DHT22;2313;48.552;9.370;2023-08-01T11:14:25;19.40;99.90
4602;DHT22;2313;48.552;9.370;2023-08-01T11:16:53;19.40;99.90
4602;DHT22;2313;48.552;9.370;2023-08-01T11:19:26;19.40;99.90
4602;DHT22;2313;48.552;9.370;2023-08-01T11:21:54;19.40;99.90
4602;DHT22;2313;48.552;9.370;2023-08-01T11:24:24;19.50;99.90
4602;DHT22;2313;48.552;9.370;2023-08-01T11:26:51;19.60;99.90
4602;DHT22;2313;48.552;9.370;2023-08-01T11:29:18;19.80;99.90
4602;DHT22;2313;48.552;9.370;2023-08-01T11:31:59;20.40;99.90
4602;DHT22;2313;48.552;9.370;2023-08-01T11:34:25;21.00;99.90
4602;DHT22;2313;48.552;9.370;2023-08-01T11:36:51;21.30;99.90
4602;DHT22;2313;48.552;9.370;2023-08-01T11:39:17;21.50;99.90
4602;DHT22;2313;48.552;9.370;2023-08-01T11:41:44;21.60;99.90
4602;DHT22;2313;48.552;9.370;2023-08-01T11:44:09;21.60;99.90
4602;DHT22;2313;48.552;9.370;2023-08-01T11:46:37;21.50;99.90
4602;DHT22;2313;48.552;9.370;2023-08-01T11:49:04;21.20;99.90
4602;DHT22;2313;48.552;9.370;2023-08-01T11:51:42;21.30;99.90
4602;DHT22;2313;48.552;9.370;2023-08-01T11:54:09;21.20;99.90
4602;DHT22;2313;48.552;9.370;2023-08-01T11:56:37;21.00;99.90
4602;DHT22;2313;48.552;9.370;2023-08-01T11:59:11;21.00;99.90
4602;DHT22;2313;48.552;9.370;2023-08-01T12:01:39;20.90;99.90
4602;DHT22;2313;48.552;9.370;2023-08-01T12:04:05;20.80;99.90
4602;DHT22;2313;48.552;9.370;2023-08-01T12:06:32;21.00;99.90
4602;DHT22;2313;48.552;9.370;2023-08-01T12:09:11;21.40;99.90
4602;DHT22;2313;48.552;9.370;2023-08-01T12:11:38;22.10;99.90
4602;DHT22;2313;48.552;9.370;2023-08-01T12:14:12;22.70;99.90
4602;DHT22;2313;48.552;9.370;2023-08-01T12:16:40;23.20;99.90
4602;DHT22;2313;48.552;9.370;2023-08-01T12:19:07;23.20;99.90
4602;DHT22;2313;48.552;9.370;2023-08-01T12:21:33;23.30;99.90
4602;DHT22;2313;48.552;9.370;2023-08-01T12:24:00;23.00;99.90
4602;DHT22;2313;48.552;9.370;2023-08-01T12:26:26;22.80;99.90
4602;DHT22;2313;48.552;9.370;2023-08-01T12:28:52;22.60;99.90
4602;DHT22;2313;48.552;9.370;2023-08-01T12:31:18;22.30;99.90
4602;DHT22;2313;48.552;9.370;2023-08-01T12:33:45;22.20;99.90
4602;DHT22;2313;48.552;9.370;2023-08-01T12:36:12;22.20;99.90
4602;DHT22;2313;48.552;9.370;2023-08-01T12:38:38;22.20;99.90
4602;DHT22;2313;48.552;9.370;2023-08-01T12:41:03;22.40;99.90
4602;DHT22;2313;48.552;9.370;2023-08-01T12:43:29;22.70;99.90
4602;DHT22;2313;48.552;9.370;2023-08-01T12:45:54;22.80;99.90
4602;DHT22;2313;48.552;9.370;2023-08-01T12:48:22;23.20;99.90
4602;DHT22;2313;48.552;9.370;2023-08-01T12:50:48;22.90;99.90
4602;DHT22;2313;48.552;9.370;2023-08-01T12:53:14;22.70;99.90
4602;DHT22;2313;48.552;9.370;2023-08-01T12:55:43;22.90;99.90
4602;DHT22;2313;48.552;9.370;2023-08-01T12:58:09;22.90;99.90
4602;DHT22;2313;48.552;9.370;2023-08-01T13:00:35;22.80;99.90
4602;DHT22;2313;48.552;9.370;2023-08-01T13:03:00;22.40;99.90
4602;DHT22;2313;48.552;9.370;2023-08-01T13:05:26;22.20;99.90
4602;DHT22;2313;48.552;9.370;2023-08-01T13:07:51;21.90;99.90
4602;DHT22;2313;48.552;9.370;2023-08-01T13:10:17;21.60;99.90
4602;DHT22;2313;48.552;9.370;2023-08-01T13:12:43;21.70;99.90
4602;DHT22;2313;48.552;9.370;2023-08-01T13:15:09;21.70;99.90
4602;DHT22;2313;48.552;9.370;2023-08-01T13:17:34;22.00;99.90
4602;DHT22;2313;48.552;9.370;2023-08-01T13:20:00;22.50;99.90
4602;DHT22;2313;48.552;9.370;2023-08-01T13:22:26;23.10;99.90
4602;DHT22;2313;48.552;9.370;2023-08-01T13:24:51;23.20;99.90
4602;DHT22;2313;48.552;9.370;2023-08-01T13:27:17;23.40;99.90
4602;DHT22;2313;48.552;9.370;2023-08-01T13:29:42;23.80;99.90
4602;DHT22;2313;48.552;9.370;2023-08-01T13:32:08;24.00;99.90
4602;DHT22;2313;48.552;9.370;2023-08-01T13:34:34;24.10;99.90
4602;DHT22;2313;48.552;9.370;2023-08-01T13:36:59;24.40;99.90
4602;DHT22;2313;48.552;9.370;2023-08-01T13:39:25;24.20;99.90
4602;DHT22;2313;48.552;9.370;2023-08-01T13:41:50;24.40;99.90
4602;DHT22;2313;48.552;9.370;2023-08-01T13:44:16;24.30;99.90
4602;DHT22;2313;48.552;9.370;2023-08-01T13:46:42;24.20;99.90
4602;DHT22;2313;48.552;9.370;2023-08-01T13:49:07;23.90;99.90
4602;DHT22;2313;48.552;9.370;2023-08-01T13:51:33;23.90;99.90
4602;DHT22;2313;48.552;9.370;2023-08-01T13:53:59;23.60;99.90
4602;DHT22;2313;48.552;9.370;2023-08-01T13:56:25;23.70;99.90
4602;DHT22;2313;48.552;9.370;2023-08-01T13:58:51;23.90;99.90
4602;DHT22;2313;48.552;9.370;2023-08-01T14:01:17;24.00;99.90
4602;DHT22;2313;48.552;9.370;2023-08-01T14:03:46;24.20;99.90
4602;DHT22;2313;48.552;9.370;2023-08-01T14:06:13;24.30;99.90
4602;DHT22;2313;48.552;9.370;2023-08-01T14:08:40;24.40;99.90
4602;DHT22;2313;48.552;9.370;2023-08-01T14:11:07;24.30;99.90
4602;DHT22;2313;48.552;9.370;2023-08-01T14:13:33;24.30;99.90
4602;DHT22;2313;48.552;9.370;2023-08-01T14:16:00;24.60;99.90
4602;DHT22;2313;48.552;9.370;2023-08-01T14:18:27;24.70;99.90
4602;DHT22;2313;48.552;9.370;2023-08-01T14:20:53;24.50;99.90
4602;DHT22;2313;48.552;9.370;2023-08-01T14:23:19;24.50;99.10
4602;DHT22;2313;48.552;9.370;2023-08-01T14:25:44;24.40;99.90
4602;DHT22;2313;48.552;9.370;2023-08-01T14:28:10;24.50;99.90
4602;DHT22;2313;48.552;9.370;2023-08-01T14:30:37;24.50;99.90
4602;DHT22;2313;48.552;9.370;2023-08-01T14:33:04;24.30;99.10
4602;DHT22;2313;48.552;9.370;2023-08-01T14:35:31;24.30;99.10
4602;DHT22;2313;48.552;9.370;2023-08-01T14:37:56;24.10;99.70
4602;DHT22;2313;48.552;9.370;2023-08-01T14:40:23;24.20;99.90
4602;DHT22;2313;48.552;9.370;2023-08-01T14:42:49;24.10;99.50
4602;DHT22;2313;48.552;9.370;2023-08-01T14:45:15;24.10;99.40
4602;DHT22;2313;48.552;9.370;2023-08-01T14:47:41;24.00;99.40
4602;DHT22;2313;48.552;9.370;2023-08-01T14:50:09;24.10;98.90
4602;DHT22;2313;48.552;9.370;2023-08-01T14:52:34;23.80;98.90
4602;DHT22;2313;48.552;9.370;2023-08-01T14:55:00;23.60;99.00
4602;DHT22;2313;48.552;9.370;2023-08-01T14:57:26;23.40;99.40
4602;DHT22;2313;48.552;9.370;2023-08-01T14:59:51;23.40;97.80
4602;DHT22;2313;48.552;9.370;2023-08-01T15:02:17;23.40;96.90
4602;DHT22;2313;48.552;9.370;2023-08-01T15:04:44;23.30;92.70
4602;DHT22;2313;48.552;9.370;2023-08-01T15:07:09;23.20;92.10
4602;DHT22;2313;48.552;9.370;2023-08-01T15:09:35;23.10;92.70
4602;DHT22;2313;48.552;9.370;2023-08-01T15:12:00;23.30;93.50
4602;DHT22;2313;48.552;9.370;2023-08-01T15:14:26;23.40;92.90
4602;DHT22;2313;48.552;9.370;2023-08-01T15:16:52;23.30;93.60
4602;DHT22;2313;48.552;9.370;2023-08-01T15:19:17;23.10;93.90
4602;DHT22;2313;48.552;9.370;2023-08-01T15:21:45;23.00;94.50
4602;DHT22;2313;48.552;9.370;2023-08-01T15:24:11;22.80;92.90
4602;DHT22;2313;48.552;9.370;2023-08-01T15:26:36;22.90;92.40
4602;DHT22;2313;48.552;9.370;2023-08-01T15:29:02;22.90;93.00
4602;DHT22;2313;48.552;9.370;2023-08-01T15:31:29;22.80;93.50
4602;DHT22;2313;48.552;9.370;2023-08-01T15:33:54;22.70;92.90
4602;DHT22;2313;48.552;9.370;2023-08-01T15:36:26;22.80;92.90
4602;DHT22;2313;48.552;9.370;2023-08-01T15:38:53;23.00;92.40
4602;DHT22;2313;48.552;9.370;2023-08-01T15:41:18;23.10;93.00
4602;DHT22;2313;48.552;9.370;2023-08-01T15:43:44;23.10;93.20
4602;DHT22;2313;48.552;9.370;2023-08-01T15:46:10;23.00;93.20
4602;DHT22;2313;48.552;9.370;2023-08-01T15:48:37;22.90;94.20
4602;DHT22;2313;48.552;9.370;2023-08-01T15:51:04;22.70;94.20
4602;DHT22;2313;48.552;9.370;2023-08-01T15:53:30;22.60;95.10
4602;DHT22;2313;48.552;9.370;2023-08-01T15:56:00;22.60;95.00
4602;DHT22;2313;48.552;9.370;2023-08-01T15:58:26;22.60;94.80
4602;DHT22;2313;48.552;9.370;2023-08-01T16:00:52;22.50;94.90
4602;DHT22;2313;48.552;9.370;2023-08-01T16:03:18;22.30;94.90